Time;durP1;ratioP1;P1;durP2;ratioP2;P2;SDS_P1;SDS_P2;PMS_P1;PMS_P2;Temp;Humidity;BMP_temperature;BMP_pressure;BME280_temperature;BME280_humidity;BME280_pressure;Samples;Min_cycle;Max_cycle;Signal;HPM_P1;HPM_P2
2021/01/18 00:02:03;;;;;;;11.40;10.50;;;27.90;99.90;;;;;;5076221;28;20078;-60
2021/01/18 00:04:30;;;;;;;11.30;10.30;;;28.20;99.90;;;;;;5076239;28;20100;-64
2021/01/18 00:06:57;;;;;;;10.68;9.63;;;28.50;99.90;;;;;;5076188;28;20025;-63
2021/01/18 00:09:25;;;;;;;11.13;10.10;;;28.70;99.90;;;;;;5076113;28;20016;-63
2021/01/18 00:11:52;;;;;;;11.15;10.25;;;28.70;99.40;;;;;;5076153;28;20046;-64
2021/01/18 00:14:19;;;;;;;10.82;9.80;;;28.90;99.80;;;;;;5075830;28;20384;-64
2021/01/18 00:16:47;;;;;;;9.73;8.88;;;28.90;99.80;;;;;;5075941;28;20012;-60
2021/01/18 00:19:14;;;;;;;10.82;9.93;;;29.00;99.50;;;;;;5075926;28;20048;-60
2021/01/18 00:21:45;;;;;;;11.98;10.82;;;29.00;99.10;;;;;;5075906;28;20047;-57
2021/01/18 00:24:14;;;;;;;10.98;10.00;;;29.20;98.90;;;;;;5075886;28;20047;-56
2021/01/18 00:26:45;;;;;;;10.70;9.70;;;29.10;99.50;;;;;;5075909;28;20032;-59
2021/01/18 00:29:13;;;;;;;10.10;9.38;;;29.30;99.90;;;;;;5075892;28;20027;-59
2021/01/18 00:31:46;;;;;;;12.05;10.75;;;29.00;98.60;;;;;;5075474;28;20024;-58
2021/01/18 00:34:14;;;;;;;8.68;7.95;;;29.00;99.50;;;;;;5075995;28;20025;-59
2021/01/18 00:36:48;;;;;;;8.48;7.70;;;29.20;97.70;;;;;;5075708;28;20526;-59
2021/01/18 00:39:16;;;;;;;9.82;9.10;;;29.40;96.80;;;;;;5075832;28;20016;-57
2021/01/18 00:41:43;;;;;;;11.00;9.88;;;29.40;97.20;;;;;;5075377;28;20025;-58
2021/01/18 00:44:11;;;;;;;8.60;7.90;;;29.10;96.80;;;;;;5075450;28;20075;-57
2021/01/18 00:46:38;;;;;;;8.32;7.60;;;29.00;96.50;;;;;;5075318;28;20102;-57
2021/01/18 00:49:05;;;;;;;9.90;9.02;;;29.20;96.40;;;;;;5074025;28;20388;-59
2021/01/18 00:51:37;;;;;;;9.70;9.10;;;29.50;96.60;;;;;;5075437;28;20017;-58
2021/01/18 00:54:05;;;;;;;16.95;9.45;;;29.80;97.10;;;;;;5075294;28;20020;-58
2021/01/18 00:56:32;;;;;;;16.67;9.43;;;29.90;99.90;;;;;;5075389;28;20025;-59
2021/01/18 00:59:00;;;;;;;11.43;9.98;;;29.30;99.90;;;;;;5075237;28;20075;-58
2021/01/18 01:01:27;;;;;;;12.43;9.88;;;29.60;99.90;;;;;;5075187;28;20025;-60
2021/01/18 01:03:54;;;;;;;21.42;10.25;;;29.30;99.90;;;;;;5073499;28;20029;-58
2021/01/18 01:06:22;;;;;;;13.93;9.02;;;28.90;99.90;;;;;;5074937;28;20032;-59
2021/01/18 01:08:49;;;;;;;12.25;10.07;;;28.50;99.90;;;;;;5074993;28;20052;-61
2021/01/18 01:11:16;;;;;;;12.82;10.20;;;28.50;99.90;;;;;;5074894;28;20167;-62
2021/01/18 01:13:44;;;;;;;10.98;9.05;;;28.70;99.90;;;;;;5075056;28;20472;-61
2021/01/18 01:16:11;;;;;;;10.50;8.50;;;28.90;99.90;;;;;;5074888;28;20041;-60
2021/01/18 01:18:38;;;;;;;15.02;10.60;;;28.80;99.90;;;;;;5074788;28;20389;-62
2021/01/18 01:21:06;;;;;;;15.23;11.38;;;28.80;99.90;;;;;;5074667;28;20035;-62
2021/01/18 01:23:33;;;;;;;17.75;9.88;;;28.80;99.90;;;;;;5074769;28;20078;-62
2021/01/18 01:26:01;;;;;;;15.38;9.32;;;28.80;99.90;;;;;;5074600;28;20486;-62
2021/01/18 01:28:28;;;;;;;11.52;10.13;;;28.80;99.90;;;;;;5074703;28;20468;-62
2021/01/18 01:30:55;;;;;;;15.35;10.23;;;28.90;99.90;;;;;;5074541;28;20036;-69
2021/01/18 01:33:23;;;;;;;11.35;8.77;;;28.80;99.90;;;;;;5073267;28;20025;-64
2021/01/18 01:35:50;;;;;;;13.40;9.13;;;28.90;99.90;;;;;;5074592;28;20469;-64
2021/01/18 01:38:17;;;;;;;14.60;10.40;;;28.70;99.90;;;;;;5074740;28;20027;-64
2021/01/18 01:40:45;;;;;;;14.00;10.05;;;28.70;99.90;;;;;;5074538;28;20025;-63
2021/01/18 01:43:12;;;;;;;18.85;9.95;;;28.70;99.90;;;;;;5074513;28;20027;-64
2021/01/18 01:45:39;;;;;;;11.27;9.50;;;28.70;99.90;;;;;;5073095;28;20025;-68
2021/01/18 01:48:07;;;;;;;12.73;10.73;;;28.70;99.90;;;;;;5074449;28;20023;-64
2021/01/18 01:50:38;;;;;;;11.98;10.75;;;29.00;99.90;;;;;;5074260;28;20028;-64
2021/01/18 01:53:19;;;;;;;15.15;10.35;;;29.10;99.90;;;;;;5074329;28;20028;-64
2021/01/18 01:55:46;;;;;;;11.50;10.45;;;29.20;99.90;;;;;;5073012;28;20020;-65
2021/01/18 01:58:15;;;;;;;11.63;10.10;;;28.80;99.90;;;;;;5074253;28;20027;-60
2021/01/18 02:00:43;;;;;;;11.50;10.30;;;28.80;99.90;;;;;;5074367;28;20397;-62
2021/01/18 02:03:37;;;;;;;10.65;9.07;;;28.80;99.90;;;;;;5074751;28;20438;-59
2021/01/18 02:06:05;;;;;;;11.60;8.40;;;29.10;99.90;;;;;;5063771;28;20040;-60
2021/01/18 02:08:32;;;;;;;10.85;9.35;;;29.30;99.90;;;;;;5074401;28;20362;-58
2021/01/18 02:11:00;;;;;;;11.02;9.00;;;29.20;99.90;;;;;;5074199;28;20396;-60
2021/01/18 02:13:45;;;;;;;11.60;8.80;;;29.10;99.90;;;;;;5074578;28;20021;-59
2021/01/18 02:16:12;;;;;;;13.27;8.00;;;29.10;99.90;;;;;;5073623;28;20107;-60
2021/01/18 02:19:04;;;;;;;11.18;9.85;;;29.50;99.90;;;;;;5074436;28;20017;-59
2021/01/18 02:22:05;;;;;;;12.95;10.27;;;29.60;99.90;;;;;;5074516;28;20034;-57
2021/01/18 02:25:01;;;;;;;12.68;9.07;;;29.70;99.90;;;;;;5074144;28;20052;-57
2021/01/18 02:27:40;;;;;;;10.25;9.13;;;29.70;99.90;;;;;;5074103;28;20112;-57
2021/01/18 02:30:25;;;;;;;14.67;10.47;;;29.60;99.90;;;;;;5073505;28;20020;-61
2021/01/18 02:33:20;;;;;;;9.65;8.70;;;29.40;99.90;;;;;;5073653;28;20025;-59
2021/01/18 02:36:17;;;;;;;11.80;8.80;;;29.40;99.90;;;;;;5073624;28;20052;-58
2021/01/18 02:39:08;;;;;;;12.82;10.00;;;29.40;99.90;;;;;;5019263;28;20109;-58
2021/01/18 02:41:55;;;;;;;11.07;8.93;;;29.60;99.90;;;;;;5073536;28;20047;-60
2021/01/18 02:44:25;;;;;;;9.88;8.82;;;29.60;99.90;;;;;;5073519;28;20545;-60
2021/01/18 02:46:52;;;;;;;11.27;9.63;;;29.50;99.90;;;;;;5073447;28;20020;-60
2021/01/18 02:49:22;;;;;;;13.20;10.60;;;29.40;99.90;;;;;;5073299;28;20436;-58
2021/01/18 02:52:02;;;;;;;13.82;9.30;;;29.60;99.90;;;;;;5073269;28;20476;-58
2021/01/18 02:54:30;;;;;;;9.80;8.82;;;29.90;99.90;;;;;;5073305;28;20020;-58
2021/01/18 02:56:58;;;;;;;13.05;9.57;;;30.10;99.90;;;;;;5073193;28;20016;-58
2021/01/18 02:59:27;;;;;;;11.57;10.55;;;30.20;99.90;;;;;;5073207;28;20028;-60
2021/01/18 03:02:13;;;;;;;10.88;9.88;;;30.30;99.90;;;;;;5073330;28;20016;-60
2021/01/18 03:05:08;;;;;;;10.20;9.20;;;30.30;99.90;;;;;;5073228;28;20534;-60
2021/01/18 03:08:01;;;;;;;12.07;11.00;;;30.40;99.90;;;;;;5073229;28;20093;-61
2021/01/18 03:10:48;;;;;;;11.10;9.98;;;30.20;99.90;;;;;;5073068;28;20025;-61
2021/01/18 03:13:57;;;;;;;11.98;10.93;;;30.10;99.90;;;;;;5073202;28;20052;-61
2021/01/18 03:16:31;;;;;;;12.73;10.63;;;30.10;99.90;;;;;;5070023;28;20036;-58
2021/01/18 03:19:05;;;;;;;10.45;9.32;;;30.00;99.90;;;;;;5072956;28;20017;-61
2021/01/18 03:21:32;;;;;;;11.75;10.52;;;30.10;99.90;;;;;;5073098;28;20025;-58
2021/01/18 03:24:00;;;;;;;10.88;9.77;;;29.90;99.90;;;;;;5072819;28;20518;-59
2021/01/18 03:26:27;;;;;;;12.30;10.70;;;29.90;99.90;;;;;;5072852;28;20024;-58
2021/01/18 03:28:55;;;;;;;11.32;10.02;;;30.00;99.90;;;;;;5076123;28;20023;-58
2021/01/18 03:31:23;;;;;;;11.02;9.25;;;30.30;99.90;;;;;;5076995;28;20378;-57
2021/01/18 03:33:50;;;;;;;12.65;10.10;;;30.30;99.90;;;;;;5076944;28;20024;-58
2021/01/18 03:36:18;;;;;;;10.95;9.85;;;30.40;99.90;;;;;;5077466;28;20012;-59
2021/01/18 03:38:45;;;;;;;11.80;10.63;;;30.30;99.90;;;;;;5077478;28;20108;-58
2021/01/18 03:41:13;;;;;;;13.90;11.20;;;30.50;99.90;;;;;;5077360;28;20035;-59
2021/01/18 03:43:40;;;;;;;12.07;9.63;;;30.20;99.90;;;;;;5077423;28;20020;-61
2021/01/18 03:46:07;;;;;;;14.13;10.27;;;;;;;;;;5077288;28;20027;-62
2021/01/18 03:48:34;;;;;;;14.38;11.02;;;30.10;99.90;;;;;;5077109;28;20046;-62
2021/01/18 03:51:02;;;;;;;12.35;10.15;;;29.90;99.90;;;;;;5077212;28;20017;-61
2021/01/18 03:53:29;;;;;;;15.85;11.43;;;30.00;99.90;;;;;;5077177;28;20074;-62
2021/01/18 03:55:56;;;;;;;12.07;10.55;;;29.60;99.90;;;;;;5076947;28;20103;-62
2021/01/18 03:58:24;;;;;;;15.50;10.60;;;29.20;99.90;;;;;;5076840;28;20027;-62
2021/01/18 04:00:51;;;;;;;12.65;11.35;;;29.20;99.90;;;;;;5077067;28;20059;-61
2021/01/18 04:03:19;;;;;;;12.13;10.98;;;29.30;99.90;;;;;;5076935;28;20028;-61
2021/01/18 04:05:46;;;;;;;11.52;10.48;;;29.30;99.90;;;;;;5077111;28;20033;-60
2021/01/18 04:08:15;;;;;;;11.93;10.82;;;29.30;99.90;;;;;;5076924;28;20020;-60
2021/01/18 04:10:42;;;;;;;12.20;11.10;;;29.20;99.90;;;;;;5076782;28;20024;-60
2021/01/18 04:13:10;;;;;;;12.27;11.00;;;29.50;99.90;;;;;;5076834;28;20154;-61
2021/01/18 04:15:37;;;;;;;12.07;10.95;;;29.50;99.90;;;;;;5076497;28;20503;-62
2021/01/18 04:18:05;;;;;;;11.95;10.85;;;29.40;99.90;;;;;;5076703;28;20012;-60
2021/01/18 04:20:32;;;;;;;12.43;11.38;;;29.30;99.90;;;;;;5076612;28;20421;-62
2021/01/18 04:23:04;;;;;;;12.23;10.85;;;29.20;99.90;;;;;;5076435;28;20104;-60
2021/01/18 04:25:32;;;;;;;11.50;10.38;;;29.50;99.90;;;;;;5076534;28;20016;-60
2021/01/18 04:28:02;;;;;;;11.50;10.45;;;29.50;99.90;;;;;;5076398;28;20494;-61
2021/01/18 04:30:35;;;;;;;11.02;10.00;;;29.60;99.90;;;;;;5076299;28;20420;-62
2021/01/18 04:33:09;;;;;;;13.23;10.80;;;29.70;99.90;;;;;;5076445;28;20020;-62
2021/01/18 04:35:39;;;;;;;11.88;10.68;;;29.70;99.90;;;;;;5075913;28;20031;-62
2021/01/18 04:38:07;;;;;;;12.07;10.88;;;29.90;99.90;;;;;;5075256;28;20024;-60
2021/01/18 04:40:35;;;;;;;13.45;11.02;;;30.10;99.90;;;;;;5075847;28;20063;-61
2021/01/18 04:43:03;;;;;;;11.82;10.55;;;30.10;99.90;;;;;;5075655;28;20542;-61
2021/01/18 04:45:31;;;;;;;11.07;9.80;;;29.90;99.90;;;;;;5075781;28;20025;-60
2021/01/18 04:48:00;;;;;;;11.25;10.15;;;29.90;99.90;;;;;;5074573;28;20043;-60
2021/01/18 04:50:29;;;;;;;9.85;9.10;;;29.80;99.90;;;;;;5075408;28;20029;-58
2021/01/18 04:53:00;;;;;;;10.85;9.80;;;29.80;99.90;;;;;;5075430;28;20085;-58
2021/01/18 04:56:02;;;;;;;11.13;10.10;;;29.90;99.90;;;;;;5075391;28;20028;-58
2021/01/18 04:58:31;;;;;;;10.70;9.60;;;29.80;99.90;;;;;;5072373;28;20457;-58
2021/01/18 05:01:05;;;;;;;11.50;10.38;;;29.70;99.90;;;;;;5075374;28;20020;-58
2021/01/18 05:03:36;;;;;;;10.77;9.68;;;29.70;99.90;;;;;;5075337;28;20066;-62
2021/01/18 05:06:26;;;;;;;11.48;10.38;;;29.70;99.90;;;;;;5075726;28;20114;-69
2021/01/18 05:09:05;;;;;;;11.25;10.15;;;29.90;99.90;;;;;;5075074;28;20420;-63
2021/01/18 05:11:34;;;;;;;11.52;10.32;;;30.00;99.90;;;;;;5074030;28;20090;-62
2021/01/18 05:14:03;;;;;;;10.82;9.77;;;30.00;99.90;;;;;;5075060;28;20047;-63
2021/01/18 05:16:35;;;;;;;11.43;10.20;;;29.80;99.90;;;;;;5074797;28;20045;-63
2021/01/18 05:19:13;;;;;;;11.63;10.32;;;29.50;99.90;;;;;;5075063;28;20023;-62
2021/01/18 05:21:46;;;;;;;12.52;9.48;;;29.50;99.90;;;;;;5074852;28;20021;-62
2021/01/18 05:24:15;;;;;;;11.45;10.13;;;29.50;99.90;;;;;;5075197;28;20052;-62
2021/01/18 05:26:42;;;;;;;10.43;9.63;;;29.10;99.90;;;;;;5074866;28;20028;-63
2021/01/18 05:29:10;;;;;;;10.48;9.40;;;29.20;99.90;;;;;;5074739;28;20032;-63
2021/01/18 05:31:39;;;;;;;10.38;9.38;;;29.40;99.90;;;;;;5074692;28;20038;-62
2021/01/18 05:34:13;;;;;;;10.02;8.90;;;29.70;99.90;;;;;;5074698;28;20013;-62
2021/01/18 05:36:40;;;;;;;8.70;7.78;;;29.90;99.90;;;;;;5074634;28;20028;-62
2021/01/18 05:39:10;;;;;;;10.32;9.30;;;29.70;99.90;;;;;;5074554;28;20021;-62
2021/01/18 05:41:38;;;;;;;10.00;9.00;;;29.60;99.90;;;;;;5074449;28;20029;-62
2021/01/18 05:44:07;;;;;;;10.40;9.35;;;29.70;99.90;;;;;;5074417;28;20035;-64
2021/01/18 05:46:36;;;;;;;10.07;9.18;;;29.50;99.90;;;;;;5074514;28;20033;-65
2021/01/18 05:49:10;;;;;;;9.50;8.77;;;29.50;99.90;;;;;;5074290;28;20031;-64
2021/01/18 05:51:38;;;;;;;9.88;8.93;;;29.60;99.90;;;;;;5073218;28;20035;-61
2021/01/18 05:54:10;;;;;;;11.90;8.80;;;29.70;99.90;;;;;;5074121;28;20025;-62
2021/01/18 05:56:46;;;;;;;9.52;8.57;;;29.90;99.90;;;;;;5074095;28;20357;-61
2021/01/18 05:59:19;;;;;;;9.77;8.48;;;29.70;99.90;;;;;;5074331;28;20213;-62
2021/01/18 06:01:47;;;;;;;9.70;8.70;;;29.80;99.90;;;;;;5074053;28;20032;-62
2021/01/18 06:04:29;;;;;;;10.70;8.98;;;29.80;99.90;;;;;;5072792;28;20124;-62
2021/01/18 06:07:04;;;;;;;10.35;9.15;;;29.60;99.90;;;;;;5074038;28;20029;-62
2021/01/18 06:09:46;;;;;;;10.38;9.43;;;29.80;99.90;;;;;;5073929;28;20469;-62
2021/01/18 06:12:31;;;;;;;9.68;8.88;;;30.10;99.90;;;;;;5073871;28;20476;-61
2021/01/18 06:15:13;;;;;;;9.13;8.43;;;30.00;99.90;;;;;;5073655;28;20137;-63
2021/01/18 06:17:51;;;;;;;9.10;8.20;;;30.20;99.90;;;;;;5074034;28;20025;-64
2021/01/18 06:20:20;;;;;;;11.30;9.00;;;30.20;99.90;;;;;;5073918;28;20036;-62
2021/01/18 06:22:55;;;;;;;12.20;9.13;;;30.20;99.90;;;;;;5073733;28;20054;-64
2021/01/18 06:25:24;;;;;;;10.30;9.40;;;30.20;99.90;;;;;;5073630;28;20281;-63
2021/01/18 06:27:54;;;;;;;10.05;9.27;;;30.30;99.90;;;;;;5073458;28;20032;-62
2021/01/18 06:30:23;;;;;;;11.60;10.40;;;30.50;99.90;;;;;;5073720;28;20032;-63
2021/01/18 06:32:52;;;;;;;11.13;10.07;;;30.60;99.90;;;;;;5073530;28;20025;-63
2021/01/18 06:35:27;;;;;;;12.57;10.38;;;31.20;99.90;;;;;;5073678;28;20096;-63
2021/01/18 06:38:05;;;;;;;10.70;9.90;;;31.30;99.50;;;;;;5073477;28;20029;-65
2021/01/18 06:40:37;;;;;;;10.98;10.20;;;31.30;99.20;;;;;;5073415;28;20107;-63
2021/01/18 06:43:06;;;;;;;10.40;9.50;;;31.10;99.80;;;;;;5073546;28;20024;-63
2021/01/18 06:45:41;;;;;;;10.25;9.35;;;31.30;99.40;;;;;;5073464;28;20032;-64
2021/01/18 06:48:09;;;;;;;10.43;9.30;;;31.30;99.50;;;;;;5073368;28;20095;-64
2021/01/18 06:50:40;;;;;;;11.70;9.45;;;31.20;99.80;;;;;;5073132;28;20028;-67
2021/01/18 06:53:31;;;;;;;9.52;8.70;;;31.00;99.50;;;;;;5073242;28;20093;-65
2021/01/18 06:56:23;;;;;;;9.68;8.77;;;31.20;99.20;;;;;;5073330;28;20203;-62
2021/01/18 06:59:08;;;;;;;9.48;8.68;;;31.20;98.90;;;;;;5072102;28;20485;-63
2021/01/18 07:01:46;;;;;;;10.20;9.30;;;31.50;98.40;;;;;;5073047;28;20051;-63
2021/01/18 07:04:15;;;;;;;9.68;9.05;;;31.40;97.80;;;;;;5073323;28;20100;-63
2021/01/18 07:06:44;;;;;;;10.80;9.90;;;31.80;97.50;;;;;;5073031;28;20035;-62
2021/01/18 07:09:15;;;;;;;10.52;9.55;;;32.00;97.70;;;;;;5073092;28;20086;-62
2021/01/18 07:11:43;;;;;;;10.52;9.68;;;31.80;97.00;;;;;;5071852;28;20480;-62
2021/01/18 07:14:14;;;;;;;10.70;9.73;;;31.70;96.80;;;;;;5073121;28;20020;-63
2021/01/18 07:16:43;;;;;;;10.77;9.98;;;31.60;97.00;;;;;;5071712;28;20048;-62
2021/01/18 07:19:10;;;;;;;11.23;10.18;;;31.20;96.80;;;;;;5072996;28;20104;-63
2021/01/18 07:21:57;;;;;;;11.07;9.90;;;31.40;97.10;;;;;;5072995;28;20028;-62
2021/01/18 07:24:30;;;;;;;10.10;9.27;;;31.70;96.80;;;;;;5072956;28;20073;-62
2021/01/18 07:27:07;;;;;;;10.20;9.30;;;31.50;96.70;;;;;;5072886;28;20070;-62
2021/01/18 07:29:37;;;;;;;9.82;9.02;;;31.30;97.20;;;;;;5072924;28;20028;-62
2021/01/18 07:32:09;;;;;;;10.63;9.63;;;31.20;97.00;;;;;;5072903;28;20091;-62
2021/01/18 07:34:37;;;;;;;11.77;10.15;;;30.60;96.80;;;;;;5073005;28;20028;-61
2021/01/18 07:37:10;;;;;;;11.20;9.75;;;29.90;97.50;;;;;;5072817;28;20031;-60
2021/01/18 07:39:45;;;;;;;11.00;10.02;;;29.60;98.00;;;;;;5072831;28;20021;-60
2021/01/18 07:42:31;;;;;;;11.82;10.75;;;29.30;98.30;;;;;;5072783;28;20012;-60
2021/01/18 07:45:16;;;;;;;11.45;10.35;;;29.00;98.70;;;;;;5072826;28;20024;-59
2021/01/18 07:48:00;;;;;;;11.35;10.25;;;28.70;98.70;;;;;;5071457;28;20021;-60
2021/01/18 07:50:29;;;;;;;10.80;9.90;;;28.30;99.50;;;;;;5072635;28;20027;-61
2021/01/18 07:53:05;;;;;;;11.88;10.95;;;28.30;99.90;;;;;;5072647;28;20087;-61
2021/01/18 07:55:33;;;;;;;11.88;10.98;;;28.10;99.90;;;;;;5072716;28;20025;-61
2021/01/18 07:58:20;;;;;;;11.80;10.60;;;28.00;99.90;;;;;;5072661;28;20082;-61
2021/01/18 08:00:50;;;;;;;12.70;11.50;;;28.00;99.90;;;;;;5072652;28;20388;-60
2021/01/18 08:03:23;;;;;;;11.93;10.93;;;28.10;99.90;;;;;;5072650;28;20032;-60
2021/01/18 08:06:01;;;;;;;12.40;11.40;;;27.80;99.90;;;;;;5072871;28;20040;-60
2021/01/18 08:08:33;;;;;;;12.60;11.48;;;27.50;99.90;;;;;;5072622;28;20496;-60
2021/01/18 08:11:18;;;;;;;12.75;11.55;;;27.40;99.90;;;;;;5072447;28;20142;-61
2021/01/18 08:13:50;;;;;;;13.10;11.40;;;27.10;99.90;;;;;;5073519;28;20441;-60
2021/01/18 08:16:39;;;;;;;12.15;11.10;;;26.90;99.90;;;;;;5075944;28;20045;-60
2021/01/18 08:19:22;;;;;;;12.55;11.27;;;26.50;99.90;;;;;;5076002;28;20020;-60
2021/01/18 08:22:01;;;;;;;12.40;11.25;;;26.20;99.90;;;;;;5076146;28;20024;-60
2021/01/18 08:24:28;;;;;;;12.90;11.73;;;26.00;99.90;;;;;;5076081;28;20036;-60
2021/01/18 08:27:08;;;;;;;13.27;11.88;;;25.90;99.90;;;;;;5075784;28;20024;-60
2021/01/18 08:29:52;;;;;;;12.75;11.65;;;25.90;99.90;;;;;;5075937;28;20095;-61
2021/01/18 08:32:25;;;;;;;12.73;11.65;;;25.70;99.90;;;;;;5075859;28;20020;-62
2021/01/18 08:34:53;;;;;;;14.75;11.52;;;25.60;99.90;;;;;;5076277;28;20078;-60
2021/01/18 08:37:22;;;;;;;12.50;11.02;;;25.50;99.90;;;;;;5076014;28;20017;-60
2021/01/18 08:39:55;;;;;;;12.40;11.15;;;25.40;99.90;;;;;;5076267;28;20396;-60
2021/01/18 08:42:27;;;;;;;11.48;9.88;;;25.30;99.90;;;;;;5076155;28;20027;-60
2021/01/18 08:44:58;;;;;;;10.50;9.60;;;25.20;99.90;;;;;;5075518;28;20067;-60
2021/01/18 08:47:37;;;;;;;10.32;9.32;;;25.10;99.90;;;;;;5075112;28;20497;-61
2021/01/18 08:50:27;;;;;;;12.07;9.38;;;25.00;99.90;;;;;;5075337;28;20523;-60
2021/01/18 08:53:03;;;;;;;11.75;9.43;;;25.00;99.90;;;;;;5075420;28;20469;-63
2021/01/18 08:55:30;;;;;;;12.65;10.40;;;24.90;99.90;;;;;;5075578;28;20020;-62
2021/01/18 08:57:58;;;;;;;11.65;9.85;;;24.80;99.90;;;;;;5075266;28;20028;-60
2021/01/18 09:00:42;;;;;;;13.93;10.23;;;24.70;99.90;;;;;;5075328;28;20104;-60
2021/01/18 09:03:18;;;;;;;11.10;10.00;;;24.70;99.90;;;;;;5075340;28;20035;-61
2021/01/18 09:05:53;;;;;;;11.00;9.90;;;24.60;99.90;;;;;;5073928;28;20384;-59
2021/01/18 09:08:22;;;;;;;13.38;11.15;;;24.50;99.90;;;;;;5075320;28;20017;-61
2021/01/18 09:10:58;;;;;;;10.90;10.10;;;24.40;99.90;;;;;;5075174;28;20377;-61
2021/01/18 09:13:27;;;;;;;11.35;10.15;;;24.40;99.90;;;;;;5075119;28;20366;-61
2021/01/18 09:15:57;;;;;;;12.35;11.13;;;24.40;99.90;;;;;;5074913;28;20079;-60
2021/01/18 09:18:25;;;;;;;11.70;10.70;;;24.30;99.90;;;;;;5075091;28;20020;-60
2021/01/18 09:20:55;;;;;;;11.02;10.25;;;24.20;99.90;;;;;;5075248;28;20253;-60
2021/01/18 09:23:25;;;;;;;11.63;10.48;;;24.20;99.90;;;;;;5075137;28;20070;-61
2021/01/18 09:26:18;;;;;;;;;;;24.10;99.90;;;;;;5075250;28;20025;-60
2021/01/18 09:29:03;;;;;;;13.13;10.48;;;24.10;99.90;;;;;;5072966;28;19915;-60
2021/01/18 09:31:31;;;;;;;13.50;10.18;;;24.00;99.90;;;;;;5074792;28;20108;-60
2021/01/18 09:34:11;;;;;;;11.82;10.55;;;23.90;99.90;;;;;;5074718;28;20017;-60
2021/01/18 09:36:40;;;;;;;13.10;11.75;;;23.90;99.90;;;;;;5074759;28;20031;-63
2021/01/18 09:39:17;;;;;;;15.13;11.95;;;23.90;99.90;;;;;;5074586;28;20048;-65
2021/01/18 09:41:44;;;;;;;13.68;11.27;;;23.80;99.90;;;;;;5073490;28;20020;-62
2021/01/18 09:44:12;;;;;;;13.55;12.23;;;23.90;99.90;;;;;;5074530;28;20381;-63
2021/01/18 09:46:43;;;;;;;17.42;13.20;;;23.90;99.90;;;;;;5074522;28;20016;-63
2021/01/18 09:49:09;;;;;;;;;;;23.90;99.90;;;;;;5074973;28;20389;-63
2021/01/18 09:51:37;;;;;;;14.88;13.30;;;23.90;99.90;;;;;;5074412;28;19995;-63
2021/01/18 09:54:05;;;;;;;16.45;14.07;;;23.90;99.90;;;;;;5074414;28;20012;-63
2021/01/18 09:56:34;;;;;;;14.82;13.23;;;23.80;99.90;;;;;;5074421;28;20025;-63
2021/01/18 09:59:06;;;;;;;15.43;13.30;;;23.70;99.90;;;;;;5074273;28;20108;-63
2021/01/18 10:01:38;;;;;;;16.30;14.13;;;23.70;99.90;;;;;;5074251;28;20389;-63
2021/01/18 10:04:08;;;;;;;13.88;12.27;;;23.70;99.90;;;;;;5074072;28;20039;-63
2021/01/18 10:06:36;;;;;;;15.18;13.65;;;23.70;99.90;;;;;;5074061;28;20028;-62
2021/01/18 10:09:13;;;;;;;15.07;13.50;;;23.60;99.90;;;;;;5074021;28;20028;-64
2021/01/18 10:11:48;;;;;;;14.02;12.70;;;23.60;99.90;;;;;;5072576;28;20035;-63
2021/01/18 10:14:27;;;;;;;14.27;12.77;;;23.50;99.90;;;;;;5073966;28;20199;-64
2021/01/18 10:17:09;;;;;;;15.48;13.00;;;23.50;99.90;;;;;;5073739;28;20051;-65
2021/01/18 10:19:38;;;;;;;13.57;12.27;;;23.60;99.90;;;;;;5073867;28;20039;-63
2021/01/18 10:22:16;;;;;;;14.73;12.20;;;23.60;99.90;;;;;;5073818;28;20025;-62
2021/01/18 10:24:58;;;;;;;13.40;12.25;;;23.50;99.90;;;;;;5073599;28;20060;-62
2021/01/18 10:27:30;;;;;;;13.45;12.30;;;23.50;99.90;;;;;;5073733;28;20039;-63
2021/01/18 10:30:11;;;;;;;14.52;13.20;;;23.50;99.90;;;;;;5073534;28;20378;-64
2021/01/18 10:32:43;;;;;;;14.38;13.10;;;23.60;99.90;;;;;;5073673;28;20472;-62
2021/01/18 10:35:30;;;;;;;15.13;13.63;;;23.60;99.90;;;;;;5073601;28;20052;-62
2021/01/18 10:38:20;;;;;;;13.52;12.25;;;23.50;99.90;;;;;;5073046;28;20024;-62
2021/01/18 10:41:05;;;;;;;13.52;12.20;;;23.50;99.90;;;;;;5073592;28;20017;-62
2021/01/18 10:43:33;;;;;;;14.93;13.55;;;23.40;99.90;;;;;;5073495;28;20056;-60
2021/01/18 10:46:01;;;;;;;12.77;11.88;;;23.30;99.90;;;;;;5073503;28;20496;-61
2021/01/18 10:48:33;;;;;;;14.45;13.02;;;23.30;99.90;;;;;;5072381;28;20024;-62
2021/01/18 10:51:05;;;;;;;13.00;11.65;;;23.30;99.90;;;;;;5073256;28;20028;-62
2021/01/18 10:53:33;;;;;;;14.25;13.00;;;23.20;99.90;;;;;;5073287;28;20025;-62
2021/01/18 10:56:17;;;;;;;13.57;12.20;;;23.20;99.90;;;;;;5073086;28;20165;-61
2021/01/18 10:58:54;;;;;;;13.60;12.35;;;23.10;99.90;;;;;;5073273;28;20016;-62
2021/01/18 11:01:22;;;;;;;15.10;13.70;;;23.20;99.90;;;;;;5073214;28;20016;-61
2021/01/18 11:03:49;;;;;;;14.27;13.15;;;23.10;99.90;;;;;;5073161;28;20020;-61
2021/01/18 11:06:20;;;;;;;13.90;12.73;;;23.10;99.90;;;;;;5073218;28;20032;-61
2021/01/18 11:08:51;;;;;;;;;;;23.10;99.90;;;;;;5073676;28;20460;-62
2021/01/18 11:11:28;;;;;;;14.95;13.70;;;23.10;99.90;;;;;;5073112;28;20429;-63
2021/01/18 11:14:04;;;;;;;13.57;12.48;;;23.10;99.90;;;;;;5073374;28;20508;-60
2021/01/18 11:16:31;;;;;;;14.35;13.05;;;23.00;99.90;;;;;;5072908;28;20041;-62
2021/01/18 11:19:04;;;;;;;15.00;13.60;;;23.00;99.90;;;;;;5073497;28;20086;-63
2021/01/18 11:21:32;;;;;;;14.88;13.65;;;23.00;99.90;;;;;;5073153;28;20028;-62
2021/01/18 11:23:59;;;;;;;14.55;13.25;;;22.90;99.90;;;;;;5072948;28;20020;-62
2021/01/18 11:26:27;;;;;;;14.85;13.40;;;22.90;99.90;;;;;;5072946;28;20063;-57
2021/01/18 11:28:54;;;;;;;15.13;13.75;;;23.00;99.90;;;;;;5073177;28;20508;-58
2021/01/18 11:31:21;;;;;;;15.07;13.75;;;22.90;99.90;;;;;;5073076;28;20025;-60
2021/01/18 11:33:49;;;;;;;13.52;12.32;;;22.90;99.90;;;;;;5073063;28;20021;-58
2021/01/18 11:36:23;;;;;;;14.50;13.13;;;23.00;99.90;;;;;;5072865;28;20489;-61
2021/01/18 11:38:50;;;;;;;15.65;14.20;;;23.00;99.90;;;;;;5072981;28;20024;-57
2021/01/18 11:41:18;;;;;;;13.38;12.35;;;23.00;99.90;;;;;;5072895;28;20472;-58
2021/01/18 11:43:45;;;;;;;12.65;11.63;;;23.00;99.90;;;;;;5072850;28;20149;-58
2021/01/18 11:46:19;;;;;;;12.98;11.95;;;22.90;99.90;;;;;;5072795;28;20431;-57
2021/01/18 11:48:47;;;;;;;14.63;13.25;;;22.90;99.90;;;;;;5073816;28;20107;-57
2021/01/18 11:51:16;;;;;;;13.57;12.57;;;22.90;99.90;;;;;;5076515;28;20033;-59
2021/01/18 11:53:43;;;;;;;12.27;11.38;;;22.80;99.90;;;;;;5075498;28;20028;-58
2021/01/18 11:56:11;;;;;;;12.88;11.75;;;22.80;99.90;;;;;;5076590;28;20021;-59
2021/01/18 11:58:38;;;;;;;13.38;12.40;;;22.70;99.90;;;;;;5076626;28;20017;-59
2021/01/18 12:01:06;;;;;;;13.30;11.90;;;22.70;99.90;;;;;;5076480;28;20035;-58
2021/01/18 12:03:33;;;;;;;12.93;11.70;;;22.70;99.90;;;;;;5076527;28;20024;-58
2021/01/18 12:06:00;;;;;;;13.73;12.48;;;22.70;99.90;;;;;;5076447;28;20028;-58
2021/01/18 12:08:28;;;;;;;13.23;12.07;;;22.70;99.90;;;;;;5076379;28;20077;-59
2021/01/18 12:10:55;;;;;;;12.93;11.82;;;22.60;99.90;;;;;;5076379;28;20433;-58
2021/01/18 12:13:22;;;;;;;12.30;11.35;;;22.60;99.90;;;;;;5076215;28;20031;-59
2021/01/18 12:15:50;;;;;;;13.20;12.10;;;22.60;99.90;;;;;;5076012;28;20512;-58
2021/01/18 12:18:17;;;;;;;12.45;11.50;;;22.50;99.90;;;;;;5076197;28;20514;-58
2021/01/18 12:20:44;;;;;;;14.10;12.80;;;22.50;99.90;;;;;;5076251;28;20021;-57
2021/01/18 12:23:12;;;;;;;15.15;13.23;;;22.50;99.90;;;;;;5076027;28;20021;-57
2021/01/18 12:25:39;;;;;;;14.15;12.95;;;22.50;99.90;;;;;;5076028;28;20028;-58
2021/01/18 12:28:06;;;;;;;13.32;12.02;;;22.50;99.90;;;;;;5076098;28;20024;-60
2021/01/18 12:30:34;;;;;;;13.88;12.27;;;22.50;99.90;;;;;;5075851;28;20024;-60
2021/01/18 12:33:01;;;;;;;13.75;12.55;;;22.50;99.90;;;;;;5076013;28;20024;-58
2021/01/18 12:35:28;;;;;;;13.82;12.75;;;22.50;99.90;;;;;;5075865;28;20020;-58
2021/01/18 12:37:56;;;;;;;13.43;12.18;;;22.50;99.90;;;;;;5075862;28;20017;-59
2021/01/18 12:40:23;;;;;;;13.93;12.48;;;22.50;99.90;;;;;;5075820;28;20029;-59
2021/01/18 12:42:53;;;;;;;14.48;13.15;;;22.50;99.90;;;;;;5075766;28;20016;-57
2021/01/18 12:45:20;;;;;;;14.20;13.00;;;22.50;99.90;;;;;;5075747;28;20036;-59
2021/01/18 12:47:47;;;;;;;13.82;12.63;;;22.50;99.90;;;;;;5075762;28;20111;-60
2021/01/18 12:50:15;;;;;;;14.38;13.13;;;22.50;99.90;;;;;;5075564;28;20031;-58
2021/01/18 12:52:45;;;;;;;13.60;12.70;;;22.40;99.90;;;;;;5075803;28;20024;-58
2021/01/18 12:55:12;;;;;;;13.13;12.20;;;22.50;99.90;;;;;;5075631;28;20028;-58
2021/01/18 12:57:40;;;;;;;13.00;11.93;;;22.50;99.90;;;;;;5075581;28;20048;-59
2021/01/18 13:00:09;;;;;;;13.40;12.40;;;22.50;99.90;;;;;;5075016;28;20035;-58